Time;durP1;ratioP1;P1;durP2;ratioP2;P2;SDS_P1;SDS_P2;PMS_P1;PMS_P2;Temp;Humidity;BMP_temperature;BMP_pressure;BME280_temperature;BME280_humidity;BME280_pressure;Samples;Min_cycle;Max_cycle;Signal;HPM_P1;HPM_P2
2023/03/01 00:01:20;;;;;;;40.30;17.67;;;;;;;;;;4985056;28;20037;-51
2023/03/01 00:03:45;;;;;;;49.00;19.13;;;;;;;;;;4995151;28;20149;-58
2023/03/01 00:06:11;;;;;;;43.78;18.85;;;;;;;;;;4980362;28;20125;-65
2023/03/01 00:08:36;;;;;;;41.03;17.88;;;;;;;;;;4984899;28;20026;-60
2023/03/01 00:11:07;;;;;;;43.78;18.55;;;;;;;;;;4980575;28;20493;-61
2023/03/01 00:13:33;;;;;;;46.47;20.05;;;;;;;;;;4984776;28;20030;-54
2023/03/01 00:15:59;;;;;;;41.53;18.55;;;;;;;;;;4977988;28;20096;-57
2023/03/01 00:18:24;;;;;;;43.83;19.58;;;;;;;;;;4977356;28;20571;-59
2023/03/01 00:20:51;;;;;;;45.92;20.27;;;;;;;;;;4986397;28;20121;-62
2023/03/01 00:23:16;;;;;;;41.78;20.35;;;;;;;;;;4980021;28;20050;-58
2023/03/01 00:25:42;;;;;;;44.83;20.98;;;;;;;;;;4983464;28;20043;-64
2023/03/01 00:28:07;;;;;;;50.40;19.38;;;;;;;;;;4977688;28;20446;-60
2023/03/01 00:30:32;;;;;;;49.15;18.70;;;;;;;;;;4979346;28;20090;-53
2023/03/01 00:32:58;;;;;;;54.05;22.15;;;;;;;;;;4979600;28;20169;-57
2023/03/01 00:35:23;;;;;;;44.55;20.35;;;;;;;;;;4972901;28;20027;-59
2023/03/01 00:37:53;;;;;;;51.80;21.48;;;;;;;;;;4984218;28;20034;-55
2023/03/01 00:40:18;;;;;;;47.50;20.30;;;;;;;;;;4978835;28;20032;-53
2023/03/01 00:42:44;;;;;;;46.72;19.83;;;;;;;;;;4979893;28;20619;-58
2023/03/01 00:45:09;;;;;;;47.25;20.67;;;;;;;;;;4984636;28;20033;-55
2023/03/01 00:47:34;;;;;;;46.75;20.63;;;;;;;;;;4972444;28;20034;-61
2023/03/01 00:50:00;;;;;;;49.00;22.33;;;;;;;;;;4985320;28;20454;-62
2023/03/01 00:52:25;;;;;;;41.88;20.15;;;;;;;;;;4992639;28;20038;-58
2023/03/01 00:54:52;;;;;;;49.15;21.00;;;;;;;;;;4979649;28;20072;-57
2023/03/01 00:57:17;;;;;;;51.58;22.35;;;;;;;;;;4999090;28;20476;-56
2023/03/01 00:59:43;;;;;;;50.42;21.88;;;;;;;;;;4978437;28;20036;-57
2023/03/01 01:02:08;;;;;;;48.97;21.63;;;;;;;;;;4985121;28;20056;-61
2023/03/01 01:04:33;;;;;;;45.22;20.42;;;;;;;;;;4978305;28;20033;-66
2023/03/01 01:06:59;;;;;;;49.63;21.30;;;;;;;;;;4977649;28;20030;-60
2023/03/01 01:09:24;;;;;;;53.75;21.90;;;;;;;;;;4986952;28;20038;-56
2023/03/01 01:11:50;;;;;;;53.33;20.73;;;;;;;;;;4979654;28;20501;-59
2023/03/01 01:14:16;;;;;;;46.42;19.80;;;;;;;;;;4986207;28;20555;-51
2023/03/01 01:16:42;;;;;;;45.45;20.33;;;;;;;;;;4977879;28;20030;-57
2023/03/01 01:19:07;;;;;;;50.80;20.90;;;;;;;;;;4978807;28;20026;-59
2023/03/01 01:21:32;;;;;;;51.20;23.40;;;;;;;;;;4994400;28;20411;-58
2023/03/01 01:23:58;;;;;;;58.35;21.48;;;;;;;;;;4985771;28;20146;-57
2023/03/01 01:26:31;;;;;;;46.47;21.05;;;;;;;;;;4979231;28;20487;-60
2023/03/01 01:28:57;;;;;;;52.08;21.52;;;;;;;;;;4990819;28;20045;-57
2023/03/01 01:31:24;;;;;;;57.10;22.48;;;;;;;;;;4978525;28;20554;-57
2023/03/01 01:33:49;;;;;;;56.05;22.95;;;;;;;;;;4983809;28;20152;-62
2023/03/01 01:36:15;;;;;;;46.47;21.25;;;;;;;;;;4975987;28;20042;-64
2023/03/01 01:38:42;;;;;;;49.60;20.95;;;;;;;;;;4984607;28;20030;-56
2023/03/01 01:41:08;;;;;;;51.63;21.13;;;;;;;;;;4978684;28;20065;-58
2023/03/01 01:43:35;;;;;;;47.72;21.55;;;;;;;;;;4972233;28;20034;-60
2023/03/01 01:46:02;;;;;;;46.95;21.58;;;;;;;;;;4999081;28;20053;-53
2023/03/01 01:48:40;;;;;;;52.88;21.35;;;;;;;;;;4977705;28;20034;-55
2023/03/01 01:51:05;;;;;;;52.25;21.02;;;;;;;;;;4977243;28;20038;-53
2023/03/01 01:53:31;;;;;;;52.30;23.23;;;;;;;;;;4978787;28;20093;-58
2023/03/01 01:55:58;;;;;;;55.70;21.75;;;;;;;;;;4986482;28;20061;-64
2023/03/01 01:58:26;;;;;;;47.40;21.48;;;;;;;;;;4977219;28;20455;-54
2023/03/01 02:00:53;;;;;;;53.05;22.27;;;;;;;;;;4977884;28;20030;-59
2023/03/01 02:03:19;;;;;;;47.47;20.63;;;;;;;;;;4975828;28;20037;-58
2023/03/01 02:06:03;;;;;;;50.42;21.98;;;;;;;;;;4985244;28;20037;-54
2023/03/01 02:08:30;;;;;;;51.35;22.38;;;;;;;;;;4978418;28;20034;-57
2023/03/01 02:10:56;;;;;;;51.28;21.77;;;;;;;;;;4991953;28;20121;-55
2023/03/01 02:13:21;;;;;;;51.70;21.95;;;;;;;;;;4975939;28;20106;-56
2023/03/01 02:15:46;;;;;;;47.35;22.52;;;;;;;;;;4979163;28;20655;-58
2023/03/01 02:18:14;;;;;;;52.55;22.52;;;;;;;;;;4983999;28;20077;-61
2023/03/01 02:20:52;;;;;;;50.65;21.63;;;;;;;;;;4977061;28;20035;-56
2023/03/01 02:23:17;;;;;;;52.67;22.30;;;;;;;;;;4978808;28;20057;-61
2023/03/01 02:26:13;;;;;;;48.85;20.88;;;;;;;;;;4997535;28;20042;-58
2023/03/01 02:28:40;;;;;;;55.08;22.55;;;;;;;;;;4975098;28;20129;-62
2023/03/01 02:33:51;;;;;;;48.95;21.90;;;;;;;;;;4981676;28;20022;-61
2023/03/01 02:36:23;;;;;;;57.70;25.20;;;;;;;;;;4972469;28;20698;-56
2023/03/01 02:38:49;;;;;;;50.85;21.67;;;;;;;;;;4983811;28;20128;-55
2023/03/01 02:41:16;;;;;;;51.47;21.93;;;;;;;;;;4959539;28;20046;-60
2023/03/01 02:43:41;;;;;;;53.63;21.58;;;;;;;;;;4989993;28;21076;-57
2023/03/01 02:46:12;;;;;;;51.47;22.83;;;;;;;;;;4976203;28;20037;-62
2023/03/01 02:48:47;;;;;;;53.60;24.00;;;;;;;;;;4976038;28;20034;-60
2023/03/01 02:51:12;;;;;;;55.03;23.05;;;;;;;;;;4982661;28;20031;-59
2023/03/01 02:53:46;;;;;;;49.30;21.90;;;;;;;;;;4973933;28;20080;-59
2023/03/01 02:56:12;;;;;;;54.50;21.88;;;;;;;;;;4990776;28;20034;-62
2023/03/01 02:58:45;;;;;;;;;;;;;;;;;;4998060;28;20027;-57
2023/03/01 03:01:14;;;;;;;49.45;20.38;;;;;;;;;;4976965;28;19918;-61
2023/03/01 03:03:40;;;;;;;47.75;21.65;;;;;;;;;;4976997;28;20048;-60
2023/03/01 03:06:06;;;;;;;53.73;22.70;;;;;;;;;;4987372;28;20046;-56
2023/03/01 03:08:32;;;;;;;55.20;22.27;;;;;;;;;;4979457;28;20019;-62
2023/03/01 03:10:57;;;;;;;50.83;22.60;;;;;;;;;;4969493;28;20038;-54
2023/03/01 03:13:28;;;;;;;51.33;22.10;;;;;;;;;;4980102;28;20030;-54
2023/03/01 03:15:54;;;;;;;46.95;20.88;;;;;;;;;;4981140;28;21539;-55
2023/03/01 03:18:19;;;;;;;48.80;21.67;;;;;;;;;;4984224;28;20026;-53
2023/03/01 03:20:45;;;;;;;52.42;22.55;;;;;;;;;;4982904;28;20042;-51
2023/03/01 03:23:10;;;;;;;53.65;22.75;;;;;;;;;;4985417;28;20032;-59
2023/03/01 03:25:37;;;;;;;60.15;27.20;;;;;;;;;;4980838;28;20033;-53
2023/03/01 03:28:09;;;;;;;49.83;21.30;;;;;;;;;;4982538;28;20034;-53
2023/03/01 03:30:35;;;;;;;50.45;21.58;;;;;;;;;;4985699;28;20458;-59
2023/03/01 03:33:00;;;;;;;49.03;21.83;;;;;;;;;;4979366;28;20472;-61
2023/03/01 03:35:30;;;;;;;46.03;20.30;;;;;;;;;;4984163;28;20038;-53
2023/03/01 03:38:01;;;;;;;49.13;21.98;;;;;;;;;;4976100;28;20357;-53
2023/03/01 03:40:27;;;;;;;50.60;22.77;;;;;;;;;;4979024;28;20566;-60
2023/03/01 03:42:52;;;;;;;54.33;22.27;;;;;;;;;;4985276;28;20046;-58
2023/03/01 03:45:18;;;;;;;51.33;21.05;;;;;;;;;;4980426;28;20037;-51
2023/03/01 03:47:43;;;;;;;54.08;23.08;;;;;;;;;;4987255;28;20117;-58
2023/03/01 03:50:12;;;;;;;52.60;22.58;;;;;;;;;;4982440;28;20466;-60
2023/03/01 03:52:37;;;;;;;48.28;21.05;;;;;;;;;;4979941;28;20250;-54
2023/03/01 03:55:03;;;;;;;56.13;22.58;;;;;;;;;;4986124;28;20033;-62
2023/03/01 03:57:28;;;;;;;50.03;22.45;;;;;;;;;;4977293;28;20030;-55
2023/03/01 03:59:54;;;;;;;49.47;21.90;;;;;;;;;;4988532;28;20044;-52
2023/03/01 04:02:21;;;;;;;50.28;21.90;;;;;;;;;;4979860;28;20123;-59
2023/03/01 04:04:49;;;;;;;61.40;24.45;;;;;;;;;;4977004;28;20064;-59
2023/03/01 04:07:15;;;;;;;56.50;22.73;;;;;;;;;;5002222;28;20070;-59
2023/03/01 04:09:42;;;;;;;54.83;21.92;;;;;;;;;;4978461;28;20069;-52
2023/03/01 04:12:07;;;;;;;47.80;21.30;;;;;;;;;;4997751;28;20141;-66
2023/03/01 04:14:33;;;;;;;53.92;22.35;;;;;;;;;;4980883;28;20530;-63
2023/03/01 04:16:58;;;;;;;52.60;21.45;;;;;;;;;;4981129;28;20030;-55
2023/03/01 04:19:24;;;;;;;50.05;22.13;;;;;;;;;;4982839;28;20026;-60
2023/03/01 04:21:49;;;;;;;50.70;21.13;;;;;;;;;;4979607;28;20752;-59
2023/03/01 04:24:14;;;;;;;50.35;21.92;;;;;;;;;;4990232;28;20030;-62
2023/03/01 04:26:39;;;;;;;50.45;22.48;;;;;;;;;;4981489;28;20030;-61
2023/03/01 04:29:05;;;;;;;51.42;22.08;;;;;;;;;;4978052;28;20037;-54
2023/03/01 04:31:30;;;;;;;61.92;26.23;;;;;;;;;;4983169;28;20088;-59
2023/03/01 04:33:55;;;;;;;53.58;23.95;;;;;;;;;;4977785;28;20058;-64
2023/03/01 04:36:25;;;;;;;48.33;22.17;;;;;;;;;;4983339;28;20436;-58
2023/03/01 04:38:51;;;;;;;53.47;23.13;;;;;;;;;;4999767;28;20030;-55
2023/03/01 04:41:17;;;;;;;51.53;21.98;;;;;;;;;;4980883;28;20050;-60
2023/03/01 04:43:43;;;;;;;56.45;26.08;;;;;;;;;;4982679;28;20737;-54
2023/03/01 04:46:11;;;;;;;53.45;22.92;;;;;;;;;;4978251;28;20026;-60
2023/03/01 04:48:37;;;;;;;47.88;21.55;;;;;;;;;;4980208;28;20061;-55
2023/03/01 04:51:03;;;;;;;54.58;22.30;;;;;;;;;;4985844;28;20457;-61
2023/03/01 04:53:28;;;;;;;51.08;22.83;;;;;;;;;;4976778;28;20352;-61
2023/03/01 04:55:55;;;;;;;60.28;23.00;;;;;;;;;;4986025;28;20045;-58
2023/03/01 04:58:22;;;;;;;56.47;23.52;;;;;;;;;;4979024;28;20031;-52
2023/03/01 05:00:47;;;;;;;53.00;23.85;;;;;;;;;;4978496;28;20045;-58
2023/03/01 05:03:17;;;;;;;61.35;24.25;;;;;;;;;;4983196;28;20034;-57
2023/03/01 05:05:44;;;;;;;55.33;24.17;;;;;;;;;;4978029;28;20463;-52
2023/03/01 05:08:17;;;;;;;56.13;23.70;;;;;;;;;;4984323;28;20041;-56
2023/03/01 05:10:43;;;;;;;52.22;21.27;;;;;;;;;;4978846;28;20086;-54
2023/03/01 05:13:09;;;;;;;55.27;23.50;;;;;;;;;;4979417;28;20026;-58
2023/03/01 05:15:36;;;;;;;46.78;21.55;;;;;;;;;;4984136;28;20686;-59
2023/03/01 05:18:01;;;;;;;49.53;21.98;;;;;;;;;;4991769;28;20084;-56
2023/03/01 05:20:28;;;;;;;55.33;25.27;;;;;;;;;;4993456;28;20046;-67
2023/03/01 05:22:55;;;;;;;58.50;24.65;;;;;;;;;;4979523;28;20054;-55
2023/03/01 05:25:21;;;;;;;56.97;23.58;;;;;;;;;;4980120;28;20030;-58
2023/03/01 05:27:46;;;;;;;50.35;22.33;;;;;;;;;;4983944;28;20120;-61
2023/03/01 05:30:15;;;;;;;53.30;23.73;;;;;;;;;;4979840;28;20077;-57
2023/03/01 05:32:41;;;;;;;53.92;22.80;;;;;;;;;;4983665;28;20034;-56
2023/03/01 05:35:07;;;;;;;55.60;25.23;;;;;;;;;;4974937;28;20984;-57
2023/03/01 05:37:32;;;;;;;58.25;25.45;;;;;;;;;;4976562;28;20275;-55
2023/03/01 05:39:57;;;;;;;55.00;23.05;;;;;;;;;;4982699;28;20464;-57
2023/03/01 05:42:22;;;;;;;62.15;25.15;;;;;;;;;;4977695;28;20038;-60
2023/03/01 05:44:48;;;;;;;61.08;25.55;;;;;;;;;;4981227;28;20026;-55
2023/03/01 05:47:13;;;;;;;60.35;26.08;;;;;;;;;;4974874;28;20022;-60
2023/03/01 05:49:38;;;;;;;58.28;25.20;;;;;;;;;;4980116;28;20107;-58
2023/03/01 05:52:04;;;;;;;58.22;25.38;;;;;;;;;;4988215;28;20037;-60
2023/03/01 05:54:29;;;;;;;63.70;25.55;;;;;;;;;;4977184;28;20073;-50
2023/03/01 05:56:54;;;;;;;58.70;26.38;;;;;;;;;;4983854;28;20383;-56
2023/03/01 05:59:19;;;;;;;60.15;25.52;;;;;;;;;;4975236;28;20490;-60
2023/03/01 06:01:45;;;;;;;61.80;25.85;;;;;;;;;;4977305;28;20514;-50
2023/03/01 06:04:10;;;;;;;61.35;26.30;;;;;;;;;;4979677;28;20031;-57
2023/03/01 06:06:39;;;;;;;68.30;26.92;;;;;;;;;;4977837;28;20082;-55
2023/03/01 06:09:07;;;;;;;69.65;27.13;;;;;;;;;;4981903;28;20034;-56
2023/03/01 06:11:33;;;;;;;65.57;24.90;;;;;;;;;;4976080;28;20037;-61
2023/03/01 06:13:58;;;;;;;64.13;27.92;;;;;;;;;;4973815;28;20061;-63
2023/03/01 06:16:24;;;;;;;59.13;24.50;;;;;;;;;;4982913;28;20030;-55
2023/03/01 06:18:49;;;;;;;68.45;26.02;;;;;;;;;;4975454;28;20019;-56
2023/03/01 06:21:14;;;;;;;62.65;25.02;;;;;;;;;;4978971;28;20046;-68
2023/03/01 06:23:40;;;;;;;56.75;23.95;;;;;;;;;;4978739;28;20037;-60
2023/03/01 06:26:06;;;;;;;59.45;23.98;;;;;;;;;;4976575;28;20032;-61
2023/03/01 06:28:31;;;;;;;53.50;22.02;;;;;;;;;;4982518;28;20022;-62
2023/03/01 06:30:56;;;;;;;64.82;24.60;;;;;;;;;;4974698;28;20069;-57
2023/03/01 06:33:24;;;;;;;56.63;24.58;;;;;;;;;;4974174;28;20125;-68
2023/03/01 06:35:49;;;;;;;63.95;25.45;;;;;;;;;;4979424;28;20064;-56
2023/03/01 06:38:17;;;;;;;58.10;24.10;;;;;;;;;;4975913;28;20118;-57
2023/03/01 06:40:42;;;;;;;;;;;;;;;;;;4981244;28;20050;-59
2023/03/01 06:43:08;;;;;;;60.67;22.47;;;;;;;;;;4974403;28;19925;-61
2023/03/01 06:45:37;;;;;;;71.50;25.95;;;;;;;;;;4976633;28;20030;-58
2023/03/01 06:48:05;;;;;;;67.70;26.50;;;;;;;;;;4981920;28;20041;-58
2023/03/01 06:50:31;;;;;;;61.42;24.25;;;;;;;;;;4975819;28;20113;-56
2023/03/01 06:52:56;;;;;;;62.92;26.40;;;;;;;;;;4979888;28;20085;-56
2023/03/01 06:55:22;;;;;;;66.88;27.65;;;;;;;;;;4975150;28;20167;-58
2023/03/01 06:57:47;;;;;;;70.07;25.98;;;;;;;;;;4972502;28;20868;-62
2023/03/01 07:00:13;;;;;;;65.97;25.67;;;;;;;;;;4978518;28;20384;-57
2023/03/01 07:02:38;;;;;;;64.90;25.95;;;;;;;;;;4976208;28;20110;-58
2023/03/01 07:05:04;;;;;;;62.97;26.48;;;;;;;;;;4979008;28;20109;-58
2023/03/01 07:07:29;;;;;;;65.47;25.17;;;;;;;;;;4973484;28;21613;-58
2023/03/01 07:09:55;;;;;;;66.88;25.02;;;;;;;;;;4980258;28;20026;-53
2023/03/01 07:12:20;;;;;;;60.45;25.35;;;;;;;;;;4982296;28;20049;-57
2023/03/01 07:14:45;;;;;;;62.33;24.55;;;;;;;;;;4983560;28;20034;-59
2023/03/01 07:17:10;;;;;;;70.15;26.80;;;;;;;;;;4984405;28;20397;-51
2023/03/01 07:19:36;;;;;;;66.93;24.95;;;;;;;;;;4983425;28;20125;-61
2023/03/01 07:22:04;;;;;;;69.88;25.40;;;;;;;;;;4982042;28;20038;-57
2023/03/01 07:24:29;;;;;;;66.75;26.08;;;;;;;;;;4982155;28;20041;-58
2023/03/01 07:26:54;;;;;;;61.05;23.75;;;;;;;;;;4982427;28;20045;-54
2023/03/01 07:29:20;;;;;;;64.82;26.15;;;;;;;;;;4982579;28;20026;-59
2023/03/01 07:31:45;;;;;;;60.78;25.10;;;;;;;;;;4981015;28;20034;-55
2023/03/01 07:34:10;;;;;;;62.55;25.67;;;;;;;;;;4979886;28;20121;-55
2023/03/01 07:36:36;;;;;;;64.22;26.05;;;;;;;;;;4980990;28;20094;-54
2023/03/01 07:39:02;;;;;;;62.33;24.92;;;;;;;;;;4985193;28;20046;-53
2023/03/01 07:41:28;;;;;;;65.87;26.03;;;;;;;;;;4981754;28;20050;-55
2023/03/01 07:43:53;;;;;;;65.28;25.02;;;;;;;;;;4981133;28;20039;-53
2023/03/01 07:46:19;;;;;;;63.08;25.55;;;;;;;;;;4983535;28;20030;-52
2023/03/01 07:48:44;;;;;;;67.55;29.30;;;;;;;;;;4984623;28;20050;-54
2023/03/01 07:51:09;;;;;;;64.97;25.90;;;;;;;;;;4985822;28;20026;-53
2023/03/01 07:53:35;;;;;;;68.30;25.55;;;;;;;;;;4985623;28;20030;-57
2023/03/01 07:56:04;;;;;;;67.60;26.60;;;;;;;;;;4987697;28;20717;-59
2023/03/01 07:58:30;;;;;;;67.20;26.30;;;;;;;;;;4985075;28;20035;-54
2023/03/01 08:00:55;;;;;;;69.50;28.20;;;;;;;;;;4987050;28;20038;-52
2023/03/01 08:03:20;;;;;;;65.18;26.90;;;;;;;;;;4983489;28;20036;-55
2023/03/01 08:05:45;;;;;;;67.07;26.15;;;;;;;;;;4983569;28;20038;-55
2023/03/01 08:08:11;;;;;;;72.13;27.05;;;;;;;;;;4987301;28;20129;-55
2023/03/01 08:10:36;;;;;;;61.33;26.40;;;;;;;;;;4955456;28;20454;-57
2023/03/01 08:13:01;;;;;;;57.30;24.75;;;;;;;;;;4984729;28;20027;-51
2023/03/01 08:15:27;;;;;;;60.25;25.10;;;;;;;;;;4986041;28;20045;-63
2023/03/01 08:17:52;;;;;;;60.88;24.95;;;;;;;;;;4985648;28;20042;-56
2023/03/01 08:20:17;;;;;;;61.65;25.80;;;;;;;;;;4985405;28;20110;-66
2023/03/01 08:22:42;;;;;;;61.28;25.30;;;;;;;;;;4986325;28;20041;-56
2023/03/01 08:25:08;;;;;;;65.10;25.90;;;;;;;;;;4985252;28;20113;-58
2023/03/01 08:27:33;;;;;;;59.85;25.80;;;;;;;;;;4984976;28;20035;-60
2023/03/01 08:29:58;;;;;;;64.28;25.73;;;;;;;;;;4984620;28;21269;-59
2023/03/01 08:32:24;;;;;;;65.90;25.75;;;;;;;;;;4987129;28;20476;-53
2023/03/01 08:34:49;;;;;;;73.97;27.45;;;;;;;;;;4986111;28;20022;-62
2023/03/01 08:37:14;;;;;;;63.90;26.88;;;;;;;;;;4985747;28;20041;-55
2023/03/01 08:39:40;;;;;;;58.47;25.38;;;;;;;;;;4986412;28;20088;-57
2023/03/01 08:42:05;;;;;;;61.38;25.02;;;;;;;;;;4975677;28;20133;-55
2023/03/01 08:44:30;;;;;;;59.45;25.60;;;;;;;;;;4985067;28;21678;-52
2023/03/01 08:46:57;;;;;;;73.05;28.23;;;;;;;;;;4985177;28;20221;-59
2023/03/01 08:49:23;;;;;;;74.38;28.77;;;;;;;;;;4985009;28;20036;-53
2023/03/01 08:51:49;;;;;;;62.55;26.25;;;;;;;;;;4983705;28;20125;-53
2023/03/01 08:54:15;;;;;;;64.93;24.42;;;;;;;;;;4984072;28;20126;-55
2023/03/01 08:56:41;;;;;;;63.67;26.17;;;;;;;;;;4985711;28;20030;-58
2023/03/01 08:59:07;;;;;;;68.00;26.58;;;;;;;;;;4983683;28;20034;-57
2023/03/01 09:01:32;;;;;;;59.53;25.27;;;;;;;;;;4983383;28;20521;-56
2023/03/01 09:03:57;;;;;;;69.25;27.23;;;;;;;;;;4980667;28;20034;-60
2023/03/01 09:06:23;;;;;;;65.25;27.20;;;;;;;;;;4983273;28;20546;-51
2023/03/01 09:08:49;;;;;;;61.42;26.70;;;;;;;;;;4985807;28;20030;-61
2023/03/01 09:11:16;;;;;;;69.20;28.00;;;;;;;;;;4979579;28;20046;-57
2023/03/01 09:13:42;;;;;;;64.80;27.23;;;;;;;;;;4984005;28;20022;-53
2023/03/01 09:16:07;;;;;;;68.22;26.30;;;;;;;;;;4985429;28;20450;-53
2023/03/01 09:18:33;;;;;;;60.03;26.00;;;;;;;;;;4983312;28;20034;-57
2023/03/01 09:21:09;;;;;;;61.63;25.52;;;;;;;;;;4985532;28;20039;-59
2023/03/01 09:23:38;;;;;;;60.17;24.98;;;;;;;;;;5000551;28;21732;-56
2023/03/01 09:26:05;;;;;;;66.10;26.35;;;;;;;;;;4986462;28;20034;-54
2023/03/01 09:28:30;;;;;;;61.70;25.33;;;;;;;;;;4982871;28;20576;-55
2023/03/01 09:30:59;;;;;;;63.33;26.83;;;;;;;;;;4984321;28;20030;-59
2023/03/01 09:33:25;;;;;;;55.17;25.40;;;;;;;;;;4983850;28;20065;-59
2023/03/01 09:35:55;;;;;;;60.45;25.52;;;;;;;;;;4982650;28;20659;-51
2023/03/01 09:38:20;;;;;;;66.03;25.23;;;;;;;;;;4983705;28;20117;-60
2023/03/01 09:40:46;;;;;;;57.90;25.80;;;;;;;;;;4984221;28;20034;-53
2023/03/01 09:43:30;;;;;;;61.65;26.30;;;;;;;;;;4982647;28;20108;-58
2023/03/01 09:45:59;;;;;;;64.28;26.30;;;;;;;;;;4983014;28;20577;-57
2023/03/01 09:48:26;;;;;;;57.15;25.38;;;;;;;;;;4984185;28;20081;-57
2023/03/01 09:50:51;;;;;;;;;;;;;;;;;;4985126;28;20026;-61
2023/03/01 09:53:18;;;;;;;57.27;25.77;;;;;;;;;;4985824;28;19921;-54
2023/03/01 09:56:05;;;;;;;61.65;24.65;;;;;;;;;;4983718;28;20283;-62
2023/03/01 09:58:30;;;;;;;56.17;25.05;;;;;;;;;;4979699;28;20061;-56
2023/03/01 10:00:57;;;;;;;57.35;26.58;;;;;;;;;;4984903;28;20379;-57
2023/03/01 10:03:23;;;;;;;;;;;;;;;;;;4983447;28;20828;-58
2023/03/01 10:06:09;;;;;;;69.78;28.58;;;;;;;;;;4986330;28;19983;-55
2023/03/01 10:08:41;;;;;;;56.70;25.53;;;;;;;;;;4982918;28;20906;-52
2023/03/01 10:11:16;;;;;;;54.22;23.95;;;;;;;;;;4985475;28;20084;-60
2023/03/01 10:13:54;;;;;;;55.17;24.45;;;;;;;;;;4978853;28;20045;-61
2023/03/01 10:16:46;;;;;;;59.42;26.70;;;;;;;;;;4983265;28;20120;-60
2023/03/01 10:19:15;;;;;;;56.88;24.63;;;;;;;;;;4980888;28;20045;-57
2023/03/01 10:21:42;;;;;;;61.13;27.13;;;;;;;;;;4982528;28;20046;-57
2023/03/01 10:24:12;;;;;;;55.22;24.20;;;;;;;;;;4985234;28;20132;-58
2023/03/01 10:26:41;;;;;;;57.03;25.15;;;;;;;;;;4981518;28;20042;-57
2023/03/01 10:29:07;;;;;;;53.40;24.92;;;;;;;;;;4985221;28;20027;-62
2023/03/01 10:31:53;;;;;;;54.45;24.65;;;;;;;;;;4977385;28;20431;-60
2023/03/01 10:34:20;;;;;;;55.20;24.92;;;;;;;;;;4984049;28;20050;-57
2023/03/01 10:36:50;;;;;;;58.13;24.90;;;;;;;;;;4998137;28;20030;-60
2023/03/01 10:39:20;;;;;;;60.53;25.17;;;;;;;;;;4983730;28;21792;-58
2023/03/01 10:41:59;;;;;;;57.63;24.38;;;;;;;;;;4984136;28;20030;-55
2023/03/01 10:44:54;;;;;;;55.50;24.17;;;;;;;;;;4986142;28;20061;-60
2023/03/01 10:47:24;;;;;;;61.63;26.45;;;;;;;;;;4960220;28;20046;-56
2023/03/01 10:50:00;;;;;;;51.55;23.77;;;;;;;;;;4982777;28;20264;-60
2023/03/01 10:52:34;;;;;;;54.03;25.15;;;;;;;;;;4983426;28;20085;-63
2023/03/01 10:55:23;;;;;;;56.63;26.17;;;;;;;;;;4981365;28;20045;-61
2023/03/01 10:57:48;;;;;;;50.08;23.23;;;;;;;;;;4968902;28;20046;-64
2023/03/01 11:00:24;;;;;;;51.90;23.27;;;;;;;;;;4983662;28;20026;-56
2023/03/01 11:02:51;;;;;;;52.28;25.63;;;;;;;;;;4981692;28;20053;-56
2023/03/01 11:05:23;;;;;;;50.50;22.52;;;;;;;;;;4984569;28;20129;-58
2023/03/01 11:07:51;;;;;;;49.35;23.70;;;;;;;;;;4980134;28;20502;-59
2023/03/01 11:10:17;;;;;;;46.05;22.75;;;;;;;;;;4981117;28;20117;-60
2023/03/01 11:12:43;;;;;;;49.35;22.55;;;;;;;;;;4981188;28;20100;-60
2023/03/01 11:15:19;;;;;;;50.15;23.77;;;;;;;;;;4983595;28;20034;-55
2023/03/01 11:17:44;;;;;;;48.67;23.15;;;;;;;;;;4978852;28;20712;-57
2023/03/01 11:20:17;;;;;;;50.80;22.42;;;;;;;;;;4975215;28;20033;-58
2023/03/01 11:22:46;;;;;;;49.55;23.38;;;;;;;;;;4985906;28;20038;-56
2023/03/01 11:25:13;;;;;;;54.75;23.27;;;;;;;;;;4985955;28;20391;-56
2023/03/01 11:27:41;;;;;;;50.35;21.50;;;;;;;;;;4979933;28;20410;-57
2023/03/01 11:30:25;;;;;;;50.35;22.67;;;;;;;;;;4983391;28;20031;-58
2023/03/01 11:32:51;;;;;;;44.58;21.35;;;;;;;;;;4984186;28;20049;-55
2023/03/01 11:35:19;;;;;;;42.85;21.55;;;;;;;;;;4987349;28;20038;-56
2023/03/01 11:37:54;;;;;;;68.30;23.92;;;;;;;;;;4980423;28;20022;-54
2023/03/01 11:40:24;;;;;;;43.70;21.13;;;;;;;;;;4985575;28;20116;-61
2023/03/01 11:42:50;;;;;;;44.15;22.02;;;;;;;;;;4984881;28;20026;-61
2023/03/01 11:45:15;;;;;;;41.67;21.92;;;;;;;;;;4982584;28;20422;-59
2023/03/01 11:47:59;;;;;;;46.65;22.88;;;;;;;;;;4986732;28;20096;-63
2023/03/01 11:50:38;;;;;;;46.28;22.40;;;;;;;;;;4996324;28;20050;-59
2023/03/01 11:53:04;;;;;;;50.05;23.35;;;;;;;;;;4983877;28;21747;-55
2023/03/01 11:55:29;;;;;;;49.13;23.38;;;;;;;;;;4986532;28;20096;-55
2023/03/01 11:58:15;;;;;;;45.88;23.02;;;;;;;;;;4985166;28;20058;-62
2023/03/01 12:00:44;;;;;;;45.95;22.92;;;;;;;;;;4975125;28;20494;-56
2023/03/01 12:03:15;;;;;;;48.70;23.85;;;;;;;;;;4985974;28;20046;-58
2023/03/01 12:05:40;;;;;;;105.25;27.10;;;;;;;;;;4989362;28;20042;-54
2023/03/01 12:08:24;;;;;;;47.88;23.55;;;;;;;;;;4984655;28;20232;-62
2023/03/01 12:10:57;;;;;;;51.97;23.58;;;;;;;;;;4984888;28;20117;-57
2023/03/01 12:13:40;;;;;;;47.83;25.08;;;;;;;;;;4984236;28;20264;-57
2023/03/01 12:16:18;;;;;;;48.75;24.65;;;;;;;;;;4984927;28;20030;-55
2023/03/01 12:18:43;;;;;;;48.97;26.75;;;;;;;;;;4983525;28;20022;-56
2023/03/01 12:21:08;;;;;;;52.60;26.20;;;;;;;;;;4984409;28;20034;-55
2023/03/01 12:23:43;;;;;;;48.78;25.67;;;;;;;;;;4985957;28;20382;-56
2023/03/01 12:26:12;;;;;;;47.63;25.13;;;;;;;;;;4986358;28;20062;-59
2023/03/01 12:28:43;;;;;;;48.55;26.35;;;;;;;;;;4983310;28;20069;-59
2023/03/01 12:31:15;;;;;;;50.95;27.23;;;;;;;;;;4985002;28;20043;-56
2023/03/01 12:34:03;;;;;;;53.38;26.05;;;;;;;;;;4985055;28;21302;-61
2023/03/01 12:36:28;;;;;;;52.03;25.55;;;;;;;;;;4985352;28;20475;-54
2023/03/01 12:39:09;;;;;;;53.03;26.52;;;;;;;;;;4983796;28;20022;-58
2023/03/01 12:41:34;;;;;;;48.80;24.98;;;;;;;;;;4984003;28;20435;-54
2023/03/01 12:44:12;;;;;;;45.92;23.70;;;;;;;;;;4983439;28;20041;-58
2023/03/01 12:46:52;;;;;;;49.80;23.73;;;;;;;;;;4984946;28;20042;-58
2023/03/01 12:49:33;;;;;;;52.00;26.60;;;;;;;;;;4981780;28;20062;-63
2023/03/01 12:52:09;;;;;;;51.38;26.17;;;;;;;;;;4984472;28;20478;-59
2023/03/01 12:54:35;;;;;;;50.08;25.77;;;;;;;;;;4984215;28;20038;-57
2023/03/01 12:57:10;;;;;;;49.83;27.80;;;;;;;;;;4982906;28;20026;-56
2023/03/01 13:00:00;;;;;;;46.17;26.17;;;;;;;;;;4984603;28;20034;-59
2023/03/01 13:02:35;;;;;;;53.53;26.25;;;;;;;;;;4984052;28;20522;-58
2023/03/01 13:05:18;;;;;;;49.40;25.77;;;;;;;;;;4984092;28;20722;-59
2023/03/01 13:08:02;;;;;;;59.47;33.75;;;;;;;;;;4981202;28;20036;-64
2023/03/01 13:10:38;;;;;;;56.30;30.20;;;;;;;;;;4986145;28;20034;-56
2023/03/01 13:13:19;;;;;;;55.92;29.10;;;;;;;;;;4982593;28;20859;-55
2023/03/01 13:15:47;;;;;;;54.80;27.67;;;;;;;;;;4983310;28;20101;-61
2023/03/01 13:18:15;;;;;;;50.88;26.67;;;;;;;;;;4987169;28;20058;-56
2023/03/01 13:20:43;;;;;;;58.50;30.00;;;;;;;;;;4984142;28;20987;-62
2023/03/01 13:23:12;;;;;;;60.20;31.08;;;;;;;;;;4985252;28;20068;-57
2023/03/01 13:25:56;;;;;;;53.58;28.23;;;;;;;;;;4987233;28;20034;-52
2023/03/01 13:28:34;;;;;;;53.97;28.67;;;;;;;;;;4984257;28;20046;-53
2023/03/01 13:30:59;;;;;;;51.28;27.73;;;;;;;;;;4983407;28;20037;-56
2023/03/01 13:33:28;;;;;;;55.92;27.77;;;;;;;;;;4984380;28;20034;-58
2023/03/01 13:35:54;;;;;;;55.47;30.83;;;;;;;;;;4984108;28;20104;-62
2023/03/01 13:38:38;;;;;;;52.50;27.90;;;;;;;;;;4983537;28;20042;-57
2023/03/01 13:41:04;;;;;;;55.85;29.98;;;;;;;;;;4979358;28;20225;-56
2023/03/01 13:43:32;;;;;;;54.55;27.67;;;;;;;;;;4976102;28;20469;-55
2023/03/01 13:45:57;;;;;;;54.88;29.48;;;;;;;;;;4985279;28;20046;-59
2023/03/01 13:48:27;;;;;;;54.55;28.30;;;;;;;;;;4988224;28;20030;-53
2023/03/01 13:50:59;;;;;;;55.45;28.95;;;;;;;;;;4987566;28;20210;-49
2023/03/01 13:53:26;;;;;;;62.25;33.35;;;;;;;;;;4987814;28;20109;-55
2023/03/01 13:55:54;;;;;;;55.15;28.92;;;;;;;;;;4985920;28;20019;-51
2023/03/01 13:58:23;;;;;;;63.03;30.15;;;;;;;;;;4998670;28;20121;-56
2023/03/01 14:00:55;;;;;;;60.53;29.40;;;;;;;;;;4986253;28;20034;-52
2023/03/01 14:03:20;;;;;;;57.53;29.52;;;;;;;;;;4987509;28;20046;-55
2023/03/01 14:06:06;;;;;;;57.90;30.23;;;;;;;;;;4986980;28;20037;-57
2023/03/01 14:08:32;;;;;;;62.55;33.78;;;;;;;;;;4982845;28;20035;-56
2023/03/01 14:11:16;;;;;;;66.83;35.97;;;;;;;;;;4981757;28;20714;-58
2023/03/01 14:13:47;;;;;;;60.92;28.45;;;;;;;;;;4988048;28;20703;-53
2023/03/01 14:16:15;;;;;;;59.78;31.23;;;;;;;;;;4985623;28;20476;-53
2023/03/01 14:18:56;;;;;;;55.35;26.52;;;;;;;;;;4983655;28;20026;-53
2023/03/01 14:21:22;;;;;;;57.78;28.13;;;;;;;;;;4985152;28;20034;-56
2023/03/01 14:23:47;;;;;;;55.53;27.60;;;;;;;;;;4987541;28;20117;-54
2023/03/01 14:26:13;;;;;;;54.25;27.05;;;;;;;;;;4987592;28;20040;-52
2023/03/01 14:28:39;;;;;;;52.47;27.42;;;;;;;;;;4985251;28;20629;-58